Terminal Aerodrome Forecast
Issued by NWS

Home | Current Version | Previous Version | Text Only | Print | Product List | Glossary On
Versions: 1 2 3 4 5 6 7 8 9 10 11 12 13 14 15 16 17 18 19 20 21 22
000
FTUS42 KGSP 092300
TAFGMU
TAF
KGMU 092323Z 1000/1024 24006KT P6SM VCTS BKN050CB BKN070 BKN170
     FM100200 24005KT P6SM BKN050 BKN170
      TEMPO 1011/1013 3SM BR BKN050
     FM101700 07003KT P6SM BKN040 PROB30 1017/1023 4SM TSRA
      BKN020CB=

USA.gov is the U.S. government's official web portal to all federal, state and local government web resources and services.